createdAt,value
2017-06-21T00:01:33.235Z,21.10
2017-06-21T00:04:00.693Z,21.00
2017-06-21T00:06:28.147Z,20.70
2017-06-21T00:08:55.599Z,20.80
2017-06-21T00:11:23.059Z,20.80
2017-06-21T00:13:50.515Z,20.80
2017-06-21T00:16:17.970Z,20.80
2017-06-21T00:18:45.428Z,20.80
2017-06-21T00:21:12.899Z,20.80
2017-06-21T00:23:40.352Z,20.80
2017-06-21T00:26:07.811Z,20.80
2017-06-21T00:28:35.263Z,20.70
2017-06-21T00:31:02.714Z,20.80
2017-06-21T00:33:30.179Z,20.90
2017-06-21T00:35:57.635Z,21.00
2017-06-21T00:38:25.091Z,21.00
2017-06-21T00:40:52.550Z,21.00
2017-06-21T00:43:20.006Z,21.00
2017-06-21T00:45:47.462Z,21.00
2017-06-21T00:48:14.924Z,20.90
2017-06-21T00:50:42.373Z,20.90
2017-06-21T00:53:09.827Z,21.00
2017-06-21T00:55:37.279Z,21.00
2017-06-21T00:58:04.743Z,20.70
2017-06-21T01:00:32.196Z,20.60
2017-06-21T01:02:59.692Z,20.60
2017-06-21T01:05:27.143Z,20.70
2017-06-21T01:07:54.735Z,20.80
2017-06-21T01:10:22.191Z,20.80
2017-06-21T01:12:49.652Z,20.80
2017-06-21T01:15:17.108Z,20.80
2017-06-21T01:17:44.563Z,20.70
2017-06-21T01:20:12.020Z,20.60
2017-06-21T01:22:39.471Z,20.70
2017-06-21T01:25:06.927Z,20.60
2017-06-21T01:27:34.385Z,20.40
2017-06-21T01:30:01.851Z,20.30
2017-06-21T01:32:29.313Z,20.30
2017-06-21T01:34:56.770Z,20.50
2017-06-21T01:37:24.233Z,20.60
2017-06-21T01:39:51.678Z,20.60
2017-06-21T01:42:19.148Z,20.50
2017-06-21T01:44:46.594Z,20.40
2017-06-21T01:47:14.055Z,20.50
2017-06-21T01:49:41.512Z,20.50
2017-06-21T01:52:08.974Z,20.50
2017-06-21T01:54:36.416Z,20.40
2017-06-21T01:57:03.864Z,20.40
2017-06-21T01:59:31.314Z,20.40
2017-06-21T02:01:58.775Z,20.40
2017-06-21T02:04:26.226Z,20.40
2017-06-21T02:06:53.675Z,20.30
2017-06-21T02:09:21.143Z,20.20
2017-06-21T02:11:48.587Z,20.10
2017-06-21T02:14:16.043Z,20.10
2017-06-21T02:16:43.502Z,20.00
2017-06-21T02:19:10.964Z,20.30
2017-06-21T02:21:38.415Z,20.30
2017-06-21T02:24:05.883Z,20.40
2017-06-21T02:26:33.339Z,20.40
2017-06-21T02:29:00.799Z,20.50
2017-06-21T02:31:28.253Z,20.20
2017-06-21T02:33:55.708Z,20.00
2017-06-21T02:36:23.168Z,19.90
2017-06-21T02:38:50.619Z,19.70
2017-06-21T02:41:18.075Z,19.70
2017-06-21T02:43:45.531Z,19.70
2017-06-21T02:46:12.991Z,19.80
2017-06-21T02:48:40.444Z,19.90
2017-06-21T02:51:07.899Z,19.90
2017-06-21T02:53:35.348Z,19.90
2017-06-21T02:56:02.803Z,20.00
2017-06-21T02:58:30.259Z,19.90
2017-06-21T03:00:57.726Z,19.70
2017-06-21T03:03:25.187Z,19.60
2017-06-21T03:05:52.635Z,19.50
2017-06-21T03:08:20.091Z,19.50
2017-06-21T03:10:47.552Z,19.50
2017-06-21T03:13:15.007Z,19.50
2017-06-21T03:15:42.464Z,19.30
2017-06-21T03:18:09.919Z,19.40
2017-06-21T03:20:37.376Z,19.60
2017-06-21T03:23:04.836Z,19.60
2017-06-21T03:25:32.284Z,19.70
2017-06-21T03:27:59.743Z,19.60
2017-06-21T03:30:27.191Z,19.70
2017-06-21T03:32:54.643Z,19.60
2017-06-21T03:35:22.111Z,19.60
2017-06-21T03:37:50.968Z,19.30
2017-06-21T03:40:18.423Z,19.20
2017-06-21T03:42:45.878Z,19.00
2017-06-21T03:45:13.335Z,19.00
2017-06-21T03:47:40.791Z,18.90
2017-06-21T03:50:08.247Z,18.70
2017-06-21T03:52:35.706Z,18.60
2017-06-21T03:55:03.172Z,18.70
2017-06-21T03:57:30.639Z,18.80
2017-06-21T03:59:58.102Z,18.90
2017-06-21T04:02:25.567Z,19.00
2017-06-21T04:04:53.025Z,18.90
2017-06-21T04:07:20.475Z,19.00
2017-06-21T04:09:47.931Z,19.20
2017-06-21T04:12:15.395Z,19.20
2017-06-21T04:14:42.846Z,19.30
2017-06-21T04:17:11.825Z,19.50
2017-06-21T04:19:39.279Z,19.60
2017-06-21T04:22:06.735Z,19.60
2017-06-21T04:24:34.191Z,19.60
2017-06-21T04:27:01.643Z,19.60
2017-06-21T04:29:29.107Z,19.80
2017-06-21T04:31:56.559Z,20.10
2017-06-21T04:34:24.019Z,20.50
2017-06-21T04:36:51.494Z,21.00
2017-06-21T04:39:18.955Z,21.50
2017-06-21T04:41:46.410Z,22.00
2017-06-21T04:44:13.927Z,22.10
2017-06-21T04:46:41.419Z,22.50
2017-06-21T04:49:09.067Z,22.60
2017-06-21T04:51:36.527Z,22.80
2017-06-21T04:54:03.995Z,22.80
2017-06-21T04:56:31.451Z,23.40
2017-06-21T04:58:58.907Z,24.00
2017-06-21T05:01:26.402Z,24.60
2017-06-21T05:03:54.619Z,25.30
2017-06-21T05:06:22.080Z,25.30
2017-06-21T05:08:49.527Z,25.60
2017-06-21T05:11:16.990Z,25.80
2017-06-21T05:13:44.442Z,25.70
2017-06-21T05:16:11.902Z,25.10
2017-06-21T05:18:39.355Z,25.70
2017-06-21T05:21:06.807Z,26.20
2017-06-21T05:23:34.266Z,26.90
2017-06-21T05:26:01.729Z,26.70
2017-06-21T05:28:29.180Z,24.40
2017-06-21T05:30:56.697Z,24.10
2017-06-21T05:33:24.922Z,24.00
2017-06-21T05:35:52.369Z,24.00
2017-06-21T05:38:19.822Z,24.60
2017-06-21T05:40:47.278Z,23.80
2017-06-21T05:43:14.736Z,24.30
2017-06-21T05:45:42.194Z,26.00
2017-06-21T05:48:09.647Z,27.70
2017-06-21T05:50:37.104Z,29.00
2017-06-21T05:53:04.560Z,29.90
2017-06-21T05:55:32.019Z,30.60
2017-06-21T05:57:59.482Z,30.20
2017-06-21T06:00:26.936Z,28.30
2017-06-21T06:02:54.388Z,29.70
2017-06-21T06:05:21.846Z,29.40
2017-06-21T06:07:49.302Z,30.20
2017-06-21T06:10:16.772Z,30.90
2017-06-21T06:12:44.236Z,31.70
2017-06-21T06:15:11.723Z,31.90
2017-06-21T06:17:39.173Z,32.20
2017-06-21T06:20:06.627Z,32.40
2017-06-21T06:22:34.082Z,32.10
2017-06-21T06:27:54.919Z,29.90
2017-06-21T06:30:22.383Z,29.50
2017-06-21T06:32:49.838Z,30.70
2017-06-21T06:35:17.296Z,29.60
2017-06-21T06:37:44.751Z,28.20
2017-06-21T06:40:12.206Z,29.80
2017-06-21T06:42:39.668Z,31.20
2017-06-21T06:45:07.124Z,31.90
2017-06-21T06:47:34.582Z,32.40
2017-06-21T06:50:02.039Z,31.90
2017-06-21T06:52:29.491Z,30.90
2017-06-21T06:54:56.955Z,31.30
2017-06-21T06:57:24.411Z,32.80
2017-06-21T06:59:51.873Z,33.50
2017-06-21T07:02:19.327Z,33.40
2017-06-21T07:04:46.791Z,32.20
2017-06-21T07:07:14.243Z,33.20
2017-06-21T07:09:41.708Z,33.10
2017-06-21T07:12:09.159Z,29.70
2017-06-21T07:14:36.621Z,31.10
2017-06-21T07:17:04.075Z,31.80
2017-06-21T07:19:31.531Z,32.00
2017-06-21T07:21:58.987Z,32.70
2017-06-21T07:24:26.443Z,32.30
2017-06-21T07:26:53.902Z,32.50
2017-06-21T07:29:21.359Z,31.90
2017-06-21T07:31:48.822Z,33.00
2017-06-21T07:34:16.280Z,34.00
2017-06-21T07:36:43.748Z,34.60
2017-06-21T07:39:11.975Z,34.60
2017-06-21T07:41:39.432Z,34.60
2017-06-21T07:44:06.895Z,34.90
2017-06-21T07:46:34.352Z,29.70
2017-06-21T07:49:01.807Z,30.80
2017-06-21T07:51:29.260Z,29.20
2017-06-21T07:53:56.720Z,28.60
2017-06-21T07:56:24.173Z,28.50
2017-06-21T07:58:51.627Z,29.30
2017-06-21T08:01:19.087Z,30.50
2017-06-21T08:03:46.544Z,29.60
2017-06-21T08:06:13.999Z,29.00
2017-06-21T08:08:41.451Z,30.80
2017-06-21T08:11:08.910Z,32.20
2017-06-21T08:13:36.366Z,33.10
2017-06-21T08:16:03.818Z,33.80
2017-06-21T08:18:31.316Z,34.40
2017-06-21T08:20:58.781Z,34.90
2017-06-21T08:23:26.227Z,33.10
2017-06-21T08:25:53.685Z,33.20
2017-06-21T08:28:21.135Z,33.90
2017-06-21T08:30:48.599Z,34.20
2017-06-21T08:33:16.052Z,34.30
2017-06-21T08:35:43.507Z,32.80
2017-06-21T08:38:10.975Z,31.60
2017-06-21T08:40:38.433Z,31.60
2017-06-21T08:43:06.655Z,32.00
2017-06-21T08:45:34.115Z,32.00
2017-06-21T08:48:01.575Z,31.60
2017-06-21T08:50:29.044Z,32.30
2017-06-21T08:52:56.499Z,33.30
2017-06-21T08:55:23.955Z,34.10
2017-06-21T08:57:51.431Z,32.20
2017-06-21T09:00:18.889Z,30.70
2017-06-21T09:02:46.343Z,32.90
2017-06-21T09:05:13.805Z,34.10
2017-06-21T09:07:41.256Z,33.40
2017-06-21T09:10:08.715Z,32.90
2017-06-21T09:12:36.158Z,31.50
2017-06-21T09:15:03.627Z,31.80
2017-06-21T09:17:31.079Z,30.90
2017-06-21T09:19:58.536Z,31.00
2017-06-21T09:22:25.995Z,32.80
2017-06-21T09:24:53.451Z,34.10
2017-06-21T09:27:20.908Z,35.40
2017-06-21T09:29:48.368Z,34.10
2017-06-21T09:32:15.819Z,34.10
2017-06-21T09:34:43.283Z,33.30
2017-06-21T09:37:10.732Z,33.10
2017-06-21T09:39:38.200Z,34.30
2017-06-21T09:42:06.428Z,35.90
2017-06-21T09:44:33.885Z,35.90
2017-06-21T09:47:01.339Z,35.70
2017-06-21T09:49:28.801Z,35.60
2017-06-21T09:51:56.260Z,36.40
2017-06-21T09:54:23.710Z,37.10
2017-06-21T09:56:51.170Z,36.80
2017-06-21T09:59:18.627Z,36.30
2017-06-21T10:01:46.089Z,36.50
2017-06-21T10:04:13.547Z,34.10
2017-06-21T10:06:41.011Z,35.30
2017-06-21T10:09:08.469Z,36.90
2017-06-21T10:11:35.933Z,36.30
2017-06-21T10:14:03.384Z,35.60
2017-06-21T10:16:30.859Z,35.60
2017-06-21T10:18:58.303Z,36.40
2017-06-21T10:21:25.764Z,37.10
2017-06-21T10:23:53.220Z,37.60
2017-06-21T10:26:20.675Z,37.80
2017-06-21T10:28:48.136Z,37.90
2017-06-21T10:31:15.591Z,38.50
2017-06-21T10:33:43.047Z,37.80
2017-06-21T10:36:10.504Z,35.30
2017-06-21T10:38:37.968Z,35.60
2017-06-21T10:41:05.414Z,36.80
2017-06-21T10:43:32.879Z,36.30
2017-06-21T10:46:00.323Z,37.20
2017-06-21T10:48:27.791Z,37.40
2017-06-21T10:50:55.235Z,37.90
2017-06-21T10:53:22.691Z,37.70
2017-06-21T10:55:50.147Z,37.00
2017-06-21T10:58:17.604Z,37.70
2017-06-21T11:00:45.064Z,38.00
2017-06-21T11:03:12.524Z,38.30
2017-06-21T11:05:39.979Z,38.50
2017-06-21T11:08:07.427Z,38.50
2017-06-21T11:10:34.883Z,37.00
2017-06-21T11:13:02.342Z,37.60
2017-06-21T11:15:29.805Z,36.70
2017-06-21T11:17:57.255Z,37.00
2017-06-21T11:20:24.710Z,37.80
2017-06-21T11:22:52.168Z,36.20
2017-06-21T11:25:19.607Z,36.70
2017-06-21T11:27:47.070Z,36.60
2017-06-21T11:30:14.523Z,35.80
2017-06-21T11:32:41.975Z,36.70
2017-06-21T11:35:09.423Z,36.70
2017-06-21T11:37:36.871Z,37.20
2017-06-21T11:40:04.328Z,37.50
2017-06-21T11:42:31.782Z,37.90
2017-06-21T11:44:59.235Z,37.00
2017-06-21T11:47:26.700Z,37.60
2017-06-21T11:49:54.151Z,36.90
2017-06-21T11:52:21.611Z,37.80
2017-06-21T11:54:49.063Z,38.00
2017-06-21T11:57:16.515Z,38.10
2017-06-21T11:59:43.976Z,36.60
2017-06-21T12:02:11.415Z,36.50
2017-06-21T12:04:38.878Z,36.40
2017-06-21T12:07:06.318Z,35.80
2017-06-21T12:09:33.762Z,36.60
2017-06-21T12:12:01.972Z,36.90
2017-06-21T12:14:29.426Z,36.90
2017-06-21T12:16:56.883Z,37.00
2017-06-21T12:19:24.356Z,37.40
2017-06-21T12:21:51.798Z,37.50
2017-06-21T12:24:19.239Z,37.60
2017-06-21T12:26:46.687Z,37.70
2017-06-21T12:29:14.130Z,37.70
2017-06-21T12:31:41.583Z,37.60
2017-06-21T12:34:09.799Z,37.00
2017-06-21T12:36:37.260Z,37.10
2017-06-21T12:39:04.706Z,37.30
2017-06-21T12:41:32.169Z,37.40
2017-06-21T12:43:59.619Z,37.50
2017-06-21T12:46:27.075Z,36.40
2017-06-21T12:48:54.524Z,35.80
2017-06-21T12:51:21.991Z,36.60
2017-06-21T12:53:50.231Z,36.10
2017-06-21T12:56:17.676Z,36.00
2017-06-21T12:58:45.894Z,35.90
2017-06-21T13:01:13.348Z,35.90
2017-06-21T13:03:40.802Z,36.20
2017-06-21T13:06:08.259Z,36.30
2017-06-21T13:08:35.715Z,36.30
2017-06-21T13:11:03.175Z,36.40
2017-06-21T13:13:30.630Z,35.60
2017-06-21T13:15:58.092Z,36.10
2017-06-21T13:18:25.542Z,36.30
2017-06-21T13:20:52.995Z,34.90
2017-06-21T13:23:20.467Z,35.70
2017-06-21T13:25:47.919Z,36.30
2017-06-21T13:28:15.367Z,36.20
2017-06-21T13:30:42.826Z,35.90
2017-06-21T13:33:10.279Z,36.30
2017-06-21T13:35:37.736Z,36.30
2017-06-21T13:38:05.247Z,36.30
2017-06-21T13:40:32.700Z,36.40
2017-06-21T13:43:00.146Z,36.30
2017-06-21T13:45:28.379Z,35.70
2017-06-21T13:47:55.829Z,35.60
2017-06-21T13:50:23.290Z,35.20
2017-06-21T13:52:50.741Z,35.20
2017-06-21T13:55:18.190Z,35.40
2017-06-21T13:57:45.636Z,34.90
2017-06-21T14:00:13.086Z,34.80
2017-06-21T14:02:40.530Z,35.00
2017-06-21T14:05:08.752Z,34.30
2017-06-21T14:07:36.203Z,34.30
2017-06-21T14:10:03.659Z,34.20
2017-06-21T14:12:31.115Z,34.60
2017-06-21T14:14:58.572Z,34.80
2017-06-21T14:17:26.032Z,35.10
2017-06-21T14:19:53.487Z,35.30
2017-06-21T14:22:20.943Z,34.70
2017-06-21T14:24:48.395Z,34.40
2017-06-21T14:27:15.856Z,34.60
2017-06-21T14:29:43.310Z,34.60
2017-06-21T14:32:10.775Z,34.90
2017-06-21T14:34:38.235Z,35.00
2017-06-21T14:37:05.690Z,34.90
2017-06-21T14:39:33.134Z,34.30
2017-06-21T14:42:00.611Z,34.20
2017-06-21T14:44:28.063Z,34.20
2017-06-21T14:46:55.506Z,34.20
2017-06-21T14:49:22.959Z,34.00
2017-06-21T14:51:50.416Z,34.20
2017-06-21T14:54:17.871Z,33.80
2017-06-21T14:56:45.331Z,34.00
2017-06-21T14:59:12.783Z,34.20
2017-06-21T15:01:40.238Z,34.20
2017-06-21T15:04:07.698Z,33.80
2017-06-21T15:06:35.157Z,33.70
2017-06-21T15:09:02.612Z,33.50
2017-06-21T15:11:30.067Z,33.40
2017-06-21T15:13:57.524Z,33.50
2017-06-21T15:16:24.984Z,33.40
2017-06-21T15:18:52.437Z,33.40
2017-06-21T15:21:19.893Z,33.60
2017-06-21T15:23:47.348Z,33.50
2017-06-21T15:26:14.807Z,33.30
2017-06-21T15:28:42.259Z,33.30
2017-06-21T15:31:09.722Z,33.10
2017-06-21T15:33:37.188Z,33.00
2017-06-21T15:36:04.653Z,33.20
2017-06-21T15:38:32.089Z,32.90
2017-06-21T15:40:59.563Z,32.90
2017-06-21T15:43:27.010Z,33.00
2017-06-21T15:45:54.455Z,33.00
2017-06-21T15:48:21.916Z,33.10
2017-06-21T15:50:49.362Z,32.90
2017-06-21T15:53:16.822Z,32.90
2017-06-21T15:55:44.275Z,33.00
2017-06-21T15:58:11.734Z,33.00
2017-06-21T16:00:39.175Z,32.80
2017-06-21T16:03:06.628Z,32.70
2017-06-21T16:05:34.075Z,32.80
2017-06-21T16:08:01.519Z,32.50
2017-06-21T16:10:29.731Z,32.30
2017-06-21T16:12:57.192Z,32.30
2017-06-21T16:15:24.637Z,32.20
2017-06-21T16:17:52.073Z,32.30
2017-06-21T16:20:19.527Z,32.40
2017-06-21T16:22:46.971Z,32.20
2017-06-21T16:25:15.188Z,32.10
2017-06-21T16:27:42.641Z,32.10
2017-06-21T16:30:10.100Z,32.10
2017-06-21T16:32:37.539Z,31.90
2017-06-21T16:35:04.988Z,32.10
2017-06-21T16:37:32.435Z,32.20
2017-06-21T16:40:00.656Z,32.00
2017-06-21T16:42:28.099Z,32.00
2017-06-21T16:44:55.555Z,31.80
2017-06-21T16:47:23.007Z,31.70
2017-06-21T16:49:50.487Z,31.60
2017-06-21T16:52:17.936Z,31.60
2017-06-21T16:54:45.380Z,31.60
2017-06-21T16:57:12.836Z,31.90
2017-06-21T16:59:40.299Z,31.70
2017-06-21T17:02:07.752Z,31.80
2017-06-21T17:04:35.200Z,31.60
2017-06-21T17:07:02.660Z,31.80
2017-06-21T17:09:30.117Z,31.90
2017-06-21T17:11:57.571Z,31.30
2017-06-21T17:14:25.027Z,31.30
2017-06-21T17:16:52.487Z,31.40
2017-06-21T17:19:19.943Z,31.50
2017-06-21T17:21:47.423Z,31.50
2017-06-21T17:24:14.937Z,31.30
2017-06-21T17:26:42.375Z,31.20
2017-06-21T17:29:09.826Z,31.00
2017-06-21T17:31:37.263Z,31.10
2017-06-21T17:34:04.714Z,31.00
2017-06-21T17:36:32.158Z,31.00
2017-06-21T17:38:59.617Z,30.70
2017-06-21T17:41:27.060Z,30.70
2017-06-21T17:43:54.527Z,30.80
2017-06-21T17:46:21.987Z,30.70
2017-06-21T17:48:49.439Z,30.30
2017-06-21T17:51:16.899Z,30.40
2017-06-21T17:56:37.340Z,30.40
2017-06-21T17:59:04.801Z,30.30
2017-06-21T18:01:32.239Z,30.20
2017-06-21T18:03:59.712Z,30.40
2017-06-21T18:06:27.167Z,30.50
2017-06-21T18:08:54.618Z,30.30
2017-06-21T18:11:22.075Z,30.40
2017-06-21T18:13:49.522Z,30.50
2017-06-21T18:16:16.975Z,30.40
2017-06-21T18:18:44.427Z,30.30
2017-06-21T18:21:11.879Z,30.40
2017-06-21T18:23:39.323Z,30.30
2017-06-21T18:26:06.780Z,30.30
2017-06-21T18:28:34.226Z,30.10
2017-06-21T18:31:01.691Z,29.90
2017-06-21T18:33:29.136Z,29.70
2017-06-21T18:35:56.575Z,29.60
2017-06-21T18:38:24.018Z,29.70
2017-06-21T18:40:52.235Z,29.70
2017-06-21T18:43:19.791Z,29.60
2017-06-21T18:45:47.223Z,29.70
2017-06-21T18:48:14.675Z,29.70
2017-06-21T18:50:42.123Z,29.50
2017-06-21T18:53:10.335Z,29.40
2017-06-21T18:55:37.791Z,29.40
2017-06-21T18:58:05.295Z,29.30
2017-06-21T19:00:32.738Z,29.20
2017-06-21T19:03:00.212Z,29.00
2017-06-21T19:05:27.652Z,28.10
2017-06-21T19:07:55.107Z,28.30
2017-06-21T19:10:22.567Z,28.20
2017-06-21T19:12:50.011Z,27.70
2017-06-21T19:15:17.467Z,27.30
2017-06-21T19:17:44.912Z,27.20
2017-06-21T19:20:12.371Z,27.10
2017-06-21T19:22:39.810Z,27.10
2017-06-21T19:25:07.287Z,26.40
2017-06-21T19:27:34.747Z,26.50
2017-06-21T19:30:02.211Z,26.60
2017-06-21T19:32:29.671Z,25.90
2017-06-21T19:34:57.119Z,25.90
2017-06-21T19:37:24.587Z,25.90
2017-06-21T19:39:52.035Z,25.70
2017-06-21T19:42:19.483Z,25.80
2017-06-21T19:44:46.935Z,25.90
2017-06-21T19:47:14.412Z,25.60
2017-06-21T19:49:41.851Z,25.50
2017-06-21T19:52:09.311Z,25.30
2017-06-21T19:54:36.770Z,25.00
2017-06-21T19:57:04.237Z,24.60
2017-06-21T19:59:31.688Z,24.40
2017-06-21T20:01:59.185Z,24.40
2017-06-21T20:04:26.631Z,24.10
2017-06-21T20:06:54.094Z,24.10
2017-06-21T20:09:21.542Z,24.10
2017-06-21T20:11:48.998Z,24.10
2017-06-21T20:14:16.519Z,24.20
2017-06-21T20:16:43.968Z,24.10
2017-06-21T20:19:11.431Z,24.10
2017-06-21T20:21:38.890Z,24.10
2017-06-21T20:24:06.348Z,23.80
2017-06-21T20:26:33.799Z,23.60
2017-06-21T20:29:01.260Z,23.50
2017-06-21T20:31:28.711Z,23.30
2017-06-21T20:33:56.167Z,23.30
2017-06-21T20:36:23.622Z,23.40
2017-06-21T20:38:51.071Z,23.50
2017-06-21T20:41:18.527Z,23.60
2017-06-21T20:43:46.011Z,23.20
2017-06-21T20:46:13.466Z,23.30
2017-06-21T20:48:40.915Z,23.10
2017-06-21T20:51:08.371Z,22.90
2017-06-21T20:53:35.818Z,23.00
2017-06-21T20:56:03.276Z,23.10
2017-06-21T20:58:30.723Z,23.10
2017-06-21T21:00:58.187Z,23.10
2017-06-21T21:03:25.643Z,23.00
2017-06-21T21:05:53.100Z,22.80
2017-06-21T21:08:20.547Z,22.80
2017-06-21T21:10:48.005Z,22.80
2017-06-21T21:13:15.462Z,22.80
2017-06-21T21:15:42.922Z,22.70
2017-06-21T21:18:10.374Z,22.70
2017-06-21T21:20:37.876Z,22.80
2017-06-21T21:23:06.095Z,22.80
2017-06-21T21:25:33.543Z,22.70
2017-06-21T21:28:01.004Z,22.30
2017-06-21T21:30:28.460Z,22.20
2017-06-21T21:32:55.915Z,22.10
2017-06-21T21:35:23.372Z,22.00
2017-06-21T21:37:50.851Z,22.00
2017-06-21T21:40:18.299Z,21.80
2017-06-21T21:42:45.750Z,21.80
2017-06-21T21:45:13.211Z,21.80
2017-06-21T21:47:40.668Z,21.80
2017-06-21T21:50:08.129Z,21.70
2017-06-21T21:52:35.587Z,21.70
2017-06-21T21:55:03.051Z,21.60
2017-06-21T21:57:30.501Z,21.60
2017-06-21T21:59:57.959Z,21.40
2017-06-21T22:02:25.403Z,21.40
2017-06-21T22:04:52.866Z,21.30
2017-06-21T22:07:20.319Z,21.30
2017-06-21T22:09:47.777Z,21.30
2017-06-21T22:12:15.227Z,21.50
2017-06-21T22:14:42.671Z,21.60
2017-06-21T22:17:10.131Z,21.60
2017-06-21T22:19:37.583Z,21.60
2017-06-21T22:22:05.039Z,21.70
2017-06-21T22:24:32.496Z,21.50
2017-06-21T22:26:59.958Z,21.30
2017-06-21T22:29:27.445Z,21.30
2017-06-21T22:31:55.708Z,21.60
2017-06-21T22:34:23.154Z,21.50
2017-06-21T22:36:50.621Z,21.60
2017-06-21T22:39:18.082Z,21.50
2017-06-21T22:41:45.535Z,21.10
2017-06-21T22:44:12.990Z,20.80
2017-06-21T22:46:40.447Z,20.80
2017-06-21T22:49:07.890Z,20.80
2017-06-21T22:51:36.106Z,20.90
2017-06-21T22:54:03.563Z,20.90
2017-06-21T22:56:31.019Z,21.00
2017-06-21T22:58:58.475Z,21.10
2017-06-21T23:01:25.929Z,21.00
2017-06-21T23:03:53.399Z,20.80
2017-06-21T23:06:20.847Z,20.90
2017-06-21T23:08:48.294Z,20.60
2017-06-21T23:11:15.750Z,20.60
2017-06-21T23:13:43.206Z,20.70
2017-06-21T23:16:10.667Z,20.70
2017-06-21T23:18:38.118Z,20.60
2017-06-21T23:21:05.579Z,20.70
2017-06-21T23:23:33.035Z,20.70
2017-06-21T23:26:00.487Z,20.60
2017-06-21T23:28:27.943Z,20.70
2017-06-21T23:30:55.403Z,20.50
2017-06-21T23:33:22.858Z,20.60
2017-06-21T23:35:50.319Z,20.60
2017-06-21T23:38:17.775Z,20.70
2017-06-21T23:40:45.231Z,20.70
2017-06-21T23:43:12.685Z,20.80
2017-06-21T23:45:40.139Z,20.70
2017-06-21T23:48:07.599Z,20.60
2017-06-21T23:50:35.051Z,20.60
2017-06-21T23:53:02.511Z,20.60
2017-06-21T23:55:29.966Z,20.60
2017-06-21T23:57:57.419Z,20.60
